sensor_id;sensor_type;location;lat;lon;timestamp;temperature;humidity
23669;DHT22;12011;47.422;15.018;2024-01-25T00:01:12;7.50;73.60
23669;DHT22;12011;47.422;15.018;2024-01-25T00:03:44;7.70;76.10
23669;DHT22;12011;47.422;15.018;2024-01-25T00:06:20;7.80;75.90
23669;DHT22;12011;47.422;15.018;2024-01-25T00:08:53;7.60;71.40
23669;DHT22;12011;47.422;15.018;2024-01-25T00:11:46;7.60;75.30
23669;DHT22;12011;47.422;15.018;2024-01-25T00:14:19;7.50;76.10
23669;DHT22;12011;47.422;15.018;2024-01-25T00:16:49;7.40;75.90
23669;DHT22;12011;47.422;15.018;2024-01-25T00:19:26;7.40;78.30
23669;DHT22;12011;47.422;15.018;2024-01-25T00:22:04;7.40;74.80
23669;DHT22;12011;47.422;15.018;2024-01-25T00:24:33;7.90;67.80
23669;DHT22;12011;47.422;15.018;2024-01-25T00:27:08;7.40;77.40
23669;DHT22;12011;47.422;15.018;2024-01-25T00:29:42;7.30;82.00
23669;DHT22;12011;47.422;15.018;2024-01-25T00:32:14;7.30;73.80
23669;DHT22;12011;47.422;15.018;2024-01-25T00:34:49;7.20;75.20
23669;DHT22;12011;47.422;15.018;2024-01-25T00:37:26;7.30;75.80
23669;DHT22;12011;47.422;15.018;2024-01-25T00:39:59;7.20;75.10
23669;DHT22;12011;47.422;15.018;2024-01-25T00:42:30;7.40;66.80
23669;DHT22;12011;47.422;15.018;2024-01-25T00:45:03;7.30;70.20
23669;DHT22;12011;47.422;15.018;2024-01-25T00:47:34;7.30;69.60
23669;DHT22;12011;47.422;15.018;2024-01-25T00:50:07;7.30;66.60
23669;DHT22;12011;47.422;15.018;2024-01-25T00:53:05;7.40;67.10
23669;DHT22;12011;47.422;15.018;2024-01-25T00:55:36;7.30;68.20
23669;DHT22;12011;47.422;15.018;2024-01-25T00:58:12;7.20;71.20
23669;DHT22;12011;47.422;15.018;2024-01-25T01:00:44;7.10;75.30
23669;DHT22;12011;47.422;15.018;2024-01-25T01:03:23;6.90;77.10
23669;DHT22;12011;47.422;15.018;2024-01-25T01:06:06;7.00;69.50
23669;DHT22;12011;47.422;15.018;2024-01-25T01:08:52;7.10;68.90
23669;DHT22;12011;47.422;15.018;2024-01-25T01:11:28;7.00;66.10
23669;DHT22;12011;47.422;15.018;2024-01-25T01:14:23;7.20;65.10
23669;DHT22;12011;47.422;15.018;2024-01-25T01:17:07;7.20;63.00
23669;DHT22;12011;47.422;15.018;2024-01-25T01:19:43;7.20;62.40
23669;DHT22;12011;47.422;15.018;2024-01-25T01:22:15;7.10;64.90
23669;DHT22;12011;47.422;15.018;2024-01-25T01:24:52;7.10;65.30
23669;DHT22;12011;47.422;15.018;2024-01-25T01:27:23;7.10;63.10
23669;DHT22;12011;47.422;15.018;2024-01-25T01:29:57;7.00;63.90
23669;DHT22;12011;47.422;15.018;2024-01-25T01:32:32;6.90;64.80
23669;DHT22;12011;47.422;15.018;2024-01-25T01:35:02;7.00;64.90
23669;DHT22;12011;47.422;15.018;2024-01-25T01:37:36;7.00;64.70
23669;DHT22;12011;47.422;15.018;2024-01-25T01:40:20;7.00;63.50
23669;DHT22;12011;47.422;15.018;2024-01-25T01:43:01;7.20;63.10
23669;DHT22;12011;47.422;15.018;2024-01-25T01:45:35;7.10;63.50
23669;DHT22;12011;47.422;15.018;2024-01-25T01:48:08;7.10;62.70
23669;DHT22;12011;47.422;15.018;2024-01-25T01:50:44;7.00;63.90
23669;DHT22;12011;47.422;15.018;2024-01-25T01:53:19;7.00;61.40
23669;DHT22;12011;47.422;15.018;2024-01-25T01:55:57;6.90;63.70
23669;DHT22;12011;47.422;15.018;2024-01-25T01:58:33;6.90;64.50
23669;DHT22;12011;47.422;15.018;2024-01-25T02:01:07;6.90;63.90
23669;DHT22;12011;47.422;15.018;2024-01-25T02:03:41;6.90;66.40
23669;DHT22;12011;47.422;15.018;2024-01-25T02:06:15;6.80;67.90
23669;DHT22;12011;47.422;15.018;2024-01-25T02:08:48;6.60;71.30
23669;DHT22;12011;47.422;15.018;2024-01-25T02:11:23;6.50;71.00
23669;DHT22;12011;47.422;15.018;2024-01-25T02:13:55;6.40;73.80
23669;DHT22;12011;47.422;15.018;2024-01-25T02:16:29;6.40;74.30
23669;DHT22;12011;47.422;15.018;2024-01-25T02:19:02;6.40;69.90
23669;DHT22;12011;47.422;15.018;2024-01-25T02:21:40;6.60;64.90
23669;DHT22;12011;47.422;15.018;2024-01-25T02:24:14;6.80;65.60
23669;DHT22;12011;47.422;15.018;2024-01-25T02:26:44;7.00;60.30
23669;DHT22;12011;47.422;15.018;2024-01-25T02:29:15;7.10;59.80
23669;DHT22;12011;47.422;15.018;2024-01-25T02:31:48;7.10;60.80
23669;DHT22;12011;47.422;15.018;2024-01-25T02:34:18;7.30;58.30
23669;DHT22;12011;47.422;15.018;2024-01-25T02:36:49;7.30;57.90
23669;DHT22;12011;47.422;15.018;2024-01-25T02:39:28;7.40;57.40
23669;DHT22;12011;47.422;15.018;2024-01-25T02:41:58;7.40;55.90
23669;DHT22;12011;47.422;15.018;2024-01-25T02:44:34;7.30;57.40
23669;DHT22;12011;47.422;15.018;2024-01-25T02:47:05;7.20;58.00
23669;DHT22;12011;47.422;15.018;2024-01-25T02:49:35;7.20;58.90
23669;DHT22;12011;47.422;15.018;2024-01-25T02:52:10;7.10;59.10
23669;DHT22;12011;47.422;15.018;2024-01-25T02:54:46;7.10;58.30
23669;DHT22;12011;47.422;15.018;2024-01-25T02:57:17;7.10;58.50
23669;DHT22;12011;47.422;15.018;2024-01-25T02:59:48;7.00;60.30
23669;DHT22;12011;47.422;15.018;2024-01-25T03:02:23;6.90;64.80
23669;DHT22;12011;47.422;15.018;2024-01-25T03:04:57;7.00;61.40
23669;DHT22;12011;47.422;15.018;2024-01-25T03:07:32;6.90;60.60
23669;DHT22;12011;47.422;15.018;2024-01-25T03:10:13;6.90;62.30
23669;DHT22;12011;47.422;15.018;2024-01-25T03:12:43;6.80;61.20
23669;DHT22;12011;47.422;15.018;2024-01-25T03:15:12;6.90;60.70
23669;DHT22;12011;47.422;15.018;2024-01-25T03:17:49;7.00;59.70
23669;DHT22;12011;47.422;15.018;2024-01-25T03:20:20;7.00;59.10
23669;DHT22;12011;47.422;15.018;2024-01-25T03:22:56;6.90;60.60
23669;DHT22;12011;47.422;15.018;2024-01-25T03:25:31;6.80;63.50
23669;DHT22;12011;47.422;15.018;2024-01-25T03:28:03;6.70;64.30
23669;DHT22;12011;47.422;15.018;2024-01-25T03:30:36;6.60;66.50
23669;DHT22;12011;47.422;15.018;2024-01-25T03:33:09;6.60;70.90
23669;DHT22;12011;47.422;15.018;2024-01-25T03:35:44;6.40;77.90
23669;DHT22;12011;47.422;15.018;2024-01-25T03:38:19;6.50;71.20
23669;DHT22;12011;47.422;15.018;2024-01-25T03:41:00;6.50;75.70
23669;DHT22;12011;47.422;15.018;2024-01-25T03:43:33;5.80;78.70
23669;DHT22;12011;47.422;15.018;2024-01-25T03:46:09;6.30;78.20
23669;DHT22;12011;47.422;15.018;2024-01-25T03:48:42;6.30;78.10
23669;DHT22;12011;47.422;15.018;2024-01-25T03:51:15;6.30;80.20
23669;DHT22;12011;47.422;15.018;2024-01-25T03:53:48;6.30;81.40
23669;DHT22;12011;47.422;15.018;2024-01-25T03:56:23;6.20;85.10
23669;DHT22;12011;47.422;15.018;2024-01-25T03:59:03;6.10;87.80
23669;DHT22;12011;47.422;15.018;2024-01-25T04:01:41;6.10;90.00
23669;DHT22;12011;47.422;15.018;2024-01-25T04:04:18;6.00;91.70
23669;DHT22;12011;47.422;15.018;2024-01-25T04:06:55;5.80;97.60
23669;DHT22;12011;47.422;15.018;2024-01-25T04:09:27;5.70;99.90
23669;DHT22;12011;47.422;15.018;2024-01-25T04:12:04;5.50;99.90
23669;DHT22;12011;47.422;15.018;2024-01-25T04:14:37;5.40;99.90
23669;DHT22;12011;47.422;15.018;2024-01-25T04:17:07;5.30;99.90
23669;DHT22;12011;47.422;15.018;2024-01-25T04:19:42;5.30;99.90
23669;DHT22;12011;47.422;15.018;2024-01-25T04:22:17;5.20;99.90
23669;DHT22;12011;47.422;15.018;2024-01-25T04:24:53;5.10;99.90
23669;DHT22;12011;47.422;15.018;2024-01-25T04:27:36;5.10;99.90
23669;DHT22;12011;47.422;15.018;2024-01-25T04:30:08;5.00;99.90
23669;DHT22;12011;47.422;15.018;2024-01-25T04:32:45;5.10;99.90
23669;DHT22;12011;47.422;15.018;2024-01-25T04:35:15;4.00;99.90
23669;DHT22;12011;47.422;15.018;2024-01-25T04:37:45;5.00;99.90
23669;DHT22;12011;47.422;15.018;2024-01-25T04:40:14;5.00;99.90
23669;DHT22;12011;47.422;15.018;2024-01-25T04:42:47;5.00;99.90
23669;DHT22;12011;47.422;15.018;2024-01-25T04:45:18;4.90;99.90
23669;DHT22;12011;47.422;15.018;2024-01-25T04:47:50;4.90;99.90
23669;DHT22;12011;47.422;15.018;2024-01-25T04:50:21;4.90;99.90
23669;DHT22;12011;47.422;15.018;2024-01-25T04:53:01;4.90;99.90
23669;DHT22;12011;47.422;15.018;2024-01-25T04:55:34;4.90;99.90
23669;DHT22;12011;47.422;15.018;2024-01-25T04:58:07;4.80;99.90
23669;DHT22;12011;47.422;15.018;2024-01-25T05:00:38;4.70;99.90
23669;DHT22;12011;47.422;15.018;2024-01-25T05:03:10;4.70;99.90
23669;DHT22;12011;47.422;15.018;2024-01-25T05:05:43;4.50;99.90
23669;DHT22;12011;47.422;15.018;2024-01-25T05:08:20;4.60;99.90
23669;DHT22;12011;47.422;15.018;2024-01-25T05:10:51;4.50;99.90
23669;DHT22;12011;47.422;15.018;2024-01-25T05:13:27;4.40;99.90
23669;DHT22;12011;47.422;15.018;2024-01-25T05:16:00;4.40;99.90
23669;DHT22;12011;47.422;15.018;2024-01-25T05:18:31;4.40;99.90
23669;DHT22;12011;47.422;15.018;2024-01-25T05:21:10;4.40;99.90
23669;DHT22;12011;47.422;15.018;2024-01-25T05:23:40;4.30;99.90
23669;DHT22;12011;47.422;15.018;2024-01-25T05:26:12;4.30;99.90
23669;DHT22;12011;47.422;15.018;2024-01-25T05:28:47;4.20;99.90
23669;DHT22;12011;47.422;15.018;2024-01-25T05:31:19;4.10;99.90
23669;DHT22;12011;47.422;15.018;2024-01-25T05:33:53;4.10;99.90
23669;DHT22;12011;47.422;15.018;2024-01-25T05:36:25;4.00;99.90
23669;DHT22;12011;47.422;15.018;2024-01-25T05:38:58;4.00;99.90
23669;DHT22;12011;47.422;15.018;2024-01-25T05:41:39;3.90;99.90
23669;DHT22;12011;47.422;15.018;2024-01-25T05:44:17;3.80;99.90
23669;DHT22;12011;47.422;15.018;2024-01-25T05:46:46;3.80;99.90
23669;DHT22;12011;47.422;15.018;2024-01-25T05:49:19;3.80;99.90
23669;DHT22;12011;47.422;15.018;2024-01-25T05:51:55;3.90;99.90
23669;DHT22;12011;47.422;15.018;2024-01-25T05:54:26;3.80;99.90
23669;DHT22;12011;47.422;15.018;2024-01-25T05:57:12;3.80;99.90
23669;DHT22;12011;47.422;15.018;2024-01-25T05:59:46;3.70;99.90
23669;DHT22;12011;47.422;15.018;2024-01-25T06:02:20;3.60;99.90
23669;DHT22;12011;47.422;15.018;2024-01-25T06:04:56;3.50;99.90
23669;DHT22;12011;47.422;15.018;2024-01-25T06:07:30;3.60;99.90
23669;DHT22;12011;47.422;15.018;2024-01-25T06:10:03;3.60;99.90
23669;DHT22;12011;47.422;15.018;2024-01-25T06:12:35;3.60;99.90
23669;DHT22;12011;47.422;15.018;2024-01-25T06:15:13;3.60;99.90
23669;DHT22;12011;47.422;15.018;2024-01-25T06:17:49;3.40;99.90
23669;DHT22;12011;47.422;15.018;2024-01-25T06:20:20;3.30;99.90
23669;DHT22;12011;47.422;15.018;2024-01-25T06:22:54;3.20;99.90
23669;DHT22;12011;47.422;15.018;2024-01-25T06:25:27;3.20;99.90
23669;DHT22;12011;47.422;15.018;2024-01-25T06:28:00;3.20;99.90
23669;DHT22;12011;47.422;15.018;2024-01-25T06:30:32;3.20;99.90
23669;DHT22;12011;47.422;15.018;2024-01-25T06:33:08;3.20;99.90
23669;DHT22;12011;47.422;15.018;2024-01-25T06:35:40;3.20;99.90
23669;DHT22;12011;47.422;15.018;2024-01-25T06:38:09;3.20;99.90
23669;DHT22;12011;47.422;15.018;2024-01-25T06:40:38;3.30;99.90
23669;DHT22;12011;47.422;15.018;2024-01-25T06:43:08;3.20;99.90
23669;DHT22;12011;47.422;15.018;2024-01-25T06:45:40;3.30;99.90
23669;DHT22;12011;47.422;15.018;2024-01-25T06:48:09;3.30;99.90
23669;DHT22;12011;47.422;15.018;2024-01-25T06:50:39;3.30;99.90
23669;DHT22;12011;47.422;15.018;2024-01-25T06:53:08;3.20;99.90
23669;DHT22;12011;47.422;15.018;2024-01-25T06:55:38;3.20;99.90
23669;DHT22;12011;47.422;15.018;2024-01-25T06:58:07;3.20;99.90
23669;DHT22;12011;47.422;15.018;2024-01-25T07:00:37;3.20;99.90
23669;DHT22;12011;47.422;15.018;2024-01-25T07:03:09;3.20;99.90
23669;DHT22;12011;47.422;15.018;2024-01-25T07:05:38;3.20;99.90
23669;DHT22;12011;47.422;15.018;2024-01-25T07:08:08;3.10;99.90
23669;DHT22;12011;47.422;15.018;2024-01-25T07:10:39;3.20;99.90
23669;DHT22;12011;47.422;15.018;2024-01-25T07:13:09;3.10;99.90
23669;DHT22;12011;47.422;15.018;2024-01-25T07:15:41;3.20;99.90
23669;DHT22;12011;47.422;15.018;2024-01-25T07:18:10;3.20;99.90
23669;DHT22;12011;47.422;15.018;2024-01-25T07:20:40;3.20;99.90
23669;DHT22;12011;47.422;15.018;2024-01-25T07:23:10;3.00;99.90
23669;DHT22;12011;47.422;15.018;2024-01-25T07:25:39;3.00;99.90
23669;DHT22;12011;47.422;15.018;2024-01-25T07:28:09;3.10;99.90
23669;DHT22;12011;47.422;15.018;2024-01-25T07:30:41;3.10;99.90
23669;DHT22;12011;47.422;15.018;2024-01-25T07:33:10;3.10;99.90
23669;DHT22;12011;47.422;15.018;2024-01-25T07:35:40;3.10;99.90
23669;DHT22;12011;47.422;15.018;2024-01-25T07:38:11;3.20;99.90
23669;DHT22;12011;47.422;15.018;2024-01-25T07:40:41;3.20;99.90
23669;DHT22;12011;47.422;15.018;2024-01-25T07:43:11;3.20;99.90
23669;DHT22;12011;47.422;15.018;2024-01-25T07:45:43;3.30;99.90
23669;DHT22;12011;47.422;15.018;2024-01-25T07:48:13;3.30;99.90
23669;DHT22;12011;47.422;15.018;2024-01-25T07:50:42;3.40;99.90
23669;DHT22;12011;47.422;15.018;2024-01-25T07:53:11;3.40;99.90
23669;DHT22;12011;47.422;15.018;2024-01-25T07:55:42;3.60;99.90
23669;DHT22;12011;47.422;15.018;2024-01-25T07:58:11;3.60;99.90
23669;DHT22;12011;47.422;15.018;2024-01-25T08:00:43;3.80;99.90
23669;DHT22;12011;47.422;15.018;2024-01-25T08:03:14;3.90;99.90
23669;DHT22;12011;47.422;15.018;2024-01-25T08:05:44;4.00;99.90
23669;DHT22;12011;47.422;15.018;2024-01-25T08:08:13;4.00;99.90
23669;DHT22;12011;47.422;15.018;2024-01-25T08:10:43;4.20;99.90
23669;DHT22;12011;47.422;15.018;2024-01-25T08:13:13;4.40;99.90
23669;DHT22;12011;47.422;15.018;2024-01-25T08:15:45;4.50;99.90
23669;DHT22;12011;47.422;15.018;2024-01-25T08:18:14;4.60;99.90
23669;DHT22;12011;47.422;15.018;2024-01-25T08:20:45;4.90;99.90
23669;DHT22;12011;47.422;15.018;2024-01-25T08:23:15;5.50;99.90
23669;DHT22;12011;47.422;15.018;2024-01-25T08:25:44;7.90;99.90
23669;DHT22;12011;47.422;15.018;2024-01-25T08:28:14;9.00;99.90
23669;DHT22;12011;47.422;15.018;2024-01-25T08:30:46;10.00;99.90
23669;DHT22;12011;47.422;15.018;2024-01-25T08:33:16;11.10;99.90
23669;DHT22;12011;47.422;15.018;2024-01-25T08:35:46;12.00;99.90
23669;DHT22;12011;47.422;15.018;2024-01-25T08:38:15;11.30;99.90
23669;DHT22;12011;47.422;15.018;2024-01-25T08:40:44;12.10;99.90
23669;DHT22;12011;47.422;15.018;2024-01-25T08:43:14;13.10;82.50
23669;DHT22;12011;47.422;15.018;2024-01-25T08:45:46;13.10;87.30
23669;DHT22;12011;47.422;15.018;2024-01-25T08:48:16;14.30;75.40
23669;DHT22;12011;47.422;15.018;2024-01-25T08:50:45;14.70;68.70
23669;DHT22;12011;47.422;15.018;2024-01-25T08:53:19;16.00;63.70
23669;DHT22;12011;47.422;15.018;2024-01-25T08:55:53;15.30;62.40
23669;DHT22;12011;47.422;15.018;2024-01-25T08:58:22;15.20;55.80
23669;DHT22;12011;47.422;15.018;2024-01-25T09:00:54;15.90;55.20
23669;DHT22;12011;47.422;15.018;2024-01-25T09:03:24;16.50;52.50
23669;DHT22;12011;47.422;15.018;2024-01-25T09:05:53;16.20;50.00
23669;DHT22;12011;47.422;15.018;2024-01-25T09:08:23;16.20;48.50
23669;DHT22;12011;47.422;15.018;2024-01-25T09:10:52;15.40;46.70
23669;DHT22;12011;47.422;15.018;2024-01-25T09:13:21;15.20;49.30
23669;DHT22;12011;47.422;15.018;2024-01-25T09:15:53;15.50;48.20
23669;DHT22;12011;47.422;15.018;2024-01-25T09:18:23;14.70;46.00
23669;DHT22;12011;47.422;15.018;2024-01-25T09:20:53;15.00;45.00
23669;DHT22;12011;47.422;15.018;2024-01-25T09:23:22;15.20;47.00
23669;DHT22;12011;47.422;15.018;2024-01-25T09:25:51;15.70;45.70
23669;DHT22;12011;47.422;15.018;2024-01-25T09:28:21;15.20;43.30
23669;DHT22;12011;47.422;15.018;2024-01-25T09:30:50;14.10;43.80
23669;DHT22;12011;47.422;15.018;2024-01-25T09:33:22;14.40;43.90
23669;DHT22;12011;47.422;15.018;2024-01-25T09:35:52;14.20;44.70
23669;DHT22;12011;47.422;15.018;2024-01-25T09:38:21;12.90;46.20
23669;DHT22;12011;47.422;15.018;2024-01-25T09:40:51;12.10;47.50
23669;DHT22;12011;47.422;15.018;2024-01-25T09:43:20;11.00;52.60
23669;DHT22;12011;47.422;15.018;2024-01-25T09:45:53;10.20;53.50
23669;DHT22;12011;47.422;15.018;2024-01-25T09:48:25;9.50;54.50
23669;DHT22;12011;47.422;15.018;2024-01-25T09:50:55;9.10;58.70
23669;DHT22;12011;47.422;15.018;2024-01-25T09:53:24;8.80;63.20
23669;DHT22;12011;47.422;15.018;2024-01-25T09:56:05;8.40;69.20
23669;DHT22;12011;47.422;15.018;2024-01-25T09:58:38;8.20;63.60
23669;DHT22;12011;47.422;15.018;2024-01-25T10:01:09;8.10;63.50
23669;DHT22;12011;47.422;15.018;2024-01-25T10:03:43;7.80;61.00
23669;DHT22;12011;47.422;15.018;2024-01-25T10:06:13;7.60;60.00
23669;DHT22;12011;47.422;15.018;2024-01-25T10:08:44;7.60;59.20
23669;DHT22;12011;47.422;15.018;2024-01-25T10:11:14;7.50;61.50
23669;DHT22;12011;47.422;15.018;2024-01-25T10:13:47;7.30;66.30
23669;DHT22;12011;47.422;15.018;2024-01-25T10:16:18;7.20;69.90
23669;DHT22;12011;47.422;15.018;2024-01-25T10:18:50;7.20;70.10
23669;DHT22;12011;47.422;15.018;2024-01-25T10:21:20;7.20;67.90
23669;DHT22;12011;47.422;15.018;2024-01-25T10:23:50;7.30;62.10
23669;DHT22;12011;47.422;15.018;2024-01-25T10:26:21;7.20;63.50
23669;DHT22;12011;47.422;15.018;2024-01-25T10:28:53;7.20;62.70
23669;DHT22;12011;47.422;15.018;2024-01-25T10:31:24;7.10;59.80
23669;DHT22;12011;47.422;15.018;2024-01-25T10:33:57;7.30;58.70
23669;DHT22;12011;47.422;15.018;2024-01-25T10:36:28;7.30;58.40
23669;DHT22;12011;47.422;15.018;2024-01-25T10:38:59;7.30;61.70
23669;DHT22;12011;47.422;15.018;2024-01-25T10:41:34;7.30;56.70
23669;DHT22;12011;47.422;15.018;2024-01-25T10:44:04;7.30;57.50
23669;DHT22;12011;47.422;15.018;2024-01-25T10:46:37;7.40;56.70
23669;DHT22;12011;47.422;15.018;2024-01-25T10:49:10;7.40;55.50
23669;DHT22;12011;47.422;15.018;2024-01-25T10:51:41;7.30;56.10
23669;DHT22;12011;47.422;15.018;2024-01-25T10:54:12;7.30;56.60
23669;DHT22;12011;47.422;15.018;2024-01-25T10:56:43;7.30;57.00
23669;DHT22;12011;47.422;15.018;2024-01-25T10:59:15;7.30;58.50
23669;DHT22;12011;47.422;15.018;2024-01-25T11:01:46;7.30;58.80
23669;DHT22;12011;47.422;15.018;2024-01-25T11:04:19;7.20;59.30
23669;DHT22;12011;47.422;15.018;2024-01-25T11:06:49;7.20;60.40
23669;DHT22;12011;47.422;15.018;2024-01-25T11:09:19;7.20;61.40
23669;DHT22;12011;47.422;15.018;2024-01-25T11:11:50;7.30;59.30
23669;DHT22;12011;47.422;15.018;2024-01-25T11:14:25;7.60;61.40
23669;DHT22;12011;47.422;15.018;2024-01-25T11:16:55;7.60;58.90
23669;DHT22;12011;47.422;15.018;2024-01-25T11:19:27;7.60;60.90
23669;DHT22;12011;47.422;15.018;2024-01-25T11:21:56;7.50;60.50
23669;DHT22;12011;47.422;15.018;2024-01-25T11:24:26;7.30;67.30
23669;DHT22;12011;47.422;15.018;2024-01-25T11:26:56;7.10;65.20
23669;DHT22;12011;47.422;15.018;2024-01-25T11:29:25;7.30;59.10
23669;DHT22;12011;47.422;15.018;2024-01-25T11:31:55;7.40;61.50
23669;DHT22;12011;47.422;15.018;2024-01-25T11:34:27;7.30;60.60
23669;DHT22;12011;47.422;15.018;2024-01-25T11:36:57;8.10;59.70
23669;DHT22;12011;47.422;15.018;2024-01-25T11:39:27;8.50;57.50
23669;DHT22;12011;47.422;15.018;2024-01-25T11:41:57;8.30;57.20
23669;DHT22;12011;47.422;15.018;2024-01-25T11:44:26;8.30;60.30
23669;DHT22;12011;47.422;15.018;2024-01-25T11:46:56;9.00;54.60
23669;DHT22;12011;47.422;15.018;2024-01-25T11:49:28;8.90;53.40
23669;DHT22;12011;47.422;15.018;2024-01-25T11:51:58;9.30;52.80
23669;DHT22;12011;47.422;15.018;2024-01-25T11:54:28;10.70;49.10
23669;DHT22;12011;47.422;15.018;2024-01-25T11:56:58;11.00;46.80
23669;DHT22;12011;47.422;15.018;2024-01-25T11:59:27;11.50;45.80
23669;DHT22;12011;47.422;15.018;2024-01-25T12:01:57;11.30;45.70
23669;DHT22;12011;47.422;15.018;2024-01-25T12:04:29;10.90;44.80
23669;DHT22;12011;47.422;15.018;2024-01-25T12:06:59;11.10;43.60
23669;DHT22;12011;47.422;15.018;2024-01-25T12:09:28;10.70;44.80
23669;DHT22;12011;47.422;15.018;2024-01-25T12:12:00;10.80;45.60
23669;DHT22;12011;47.422;15.018;2024-01-25T12:14:30;10.70;45.80
23669;DHT22;12011;47.422;15.018;2024-01-25T12:17:01;9.80;46.10
23669;DHT22;12011;47.422;15.018;2024-01-25T12:19:36;10.60;46.80
23669;DHT22;12011;47.422;15.018;2024-01-25T12:22:06;10.70;46.30
23669;DHT22;12011;47.422;15.018;2024-01-25T12:24:35;10.50;47.20
23669;DHT22;12011;47.422;15.018;2024-01-25T12:27:04;10.50;44.90
23669;DHT22;12011;47.422;15.018;2024-01-25T12:29:34;10.60;45.80
23669;DHT22;12011;47.422;15.018;2024-01-25T12:32:03;10.10;47.60
23669;DHT22;12011;47.422;15.018;2024-01-25T12:34:35;10.00;47.20
23669;DHT22;12011;47.422;15.018;2024-01-25T12:37:07;10.00;47.30
23669;DHT22;12011;47.422;15.018;2024-01-25T12:39:37;10.40;48.50
23669;DHT22;12011;47.422;15.018;2024-01-25T12:42:06;10.70;46.70
23669;DHT22;12011;47.422;15.018;2024-01-25T12:44:36;11.20;47.50
23669;DHT22;12011;47.422;15.018;2024-01-25T12:47:05;10.50;45.90
23669;DHT22;12011;47.422;15.018;2024-01-25T12:49:39;10.40;47.00
23669;DHT22;12011;47.422;15.018;2024-01-25T12:52:09;10.10;46.50
23669;DHT22;12011;47.422;15.018;2024-01-25T12:54:39;10.00;45.70
23669;DHT22;12011;47.422;15.018;2024-01-25T12:57:09;10.30;47.30
23669;DHT22;12011;47.422;15.018;2024-01-25T12:59:38;9.80;46.90
23669;DHT22;12011;47.422;15.018;2024-01-25T13:02:08;10.00;48.70
23669;DHT22;12011;47.422;15.018;2024-01-25T13:04:40;10.40;47.60
23669;DHT22;12011;47.422;15.018;2024-01-25T13:07:09;10.40;47.40
23669;DHT22;12011;47.422;15.018;2024-01-25T13:09:39;10.50;48.80
23669;DHT22;12011;47.422;15.018;2024-01-25T13:12:08;10.10;47.20
23669;DHT22;12011;47.422;15.018;2024-01-25T13:14:38;10.30;46.50
23669;DHT22;12011;47.422;15.018;2024-01-25T13:17:07;10.00;48.20
23669;DHT22;12011;47.422;15.018;2024-01-25T13:19:39;10.40;48.90
23669;DHT22;12011;47.422;15.018;2024-01-25T13:22:09;10.30;46.70
23669;DHT22;12011;47.422;15.018;2024-01-25T13:24:38;10.40;47.70
23669;DHT22;12011;47.422;15.018;2024-01-25T13:27:08;10.10;48.10
23669;DHT22;12011;47.422;15.018;2024-01-25T13:29:37;9.90;48.10
23669;DHT22;12011;47.422;15.018;2024-01-25T13:32:08;9.70;50.20
23669;DHT22;12011;47.422;15.018;2024-01-25T13:34:40;9.50;50.00
23669;DHT22;12011;47.422;15.018;2024-01-25T13:37:09;9.40;49.00
23669;DHT22;12011;47.422;15.018;2024-01-25T13:39:38;9.10;50.90
23669;DHT22;12011;47.422;15.018;2024-01-25T13:42:08;8.90;48.90
23669;DHT22;12011;47.422;15.018;2024-01-25T13:44:37;8.70;50.20
23669;DHT22;12011;47.422;15.018;2024-01-25T13:47:07;8.60;50.50
23669;DHT22;12011;47.422;15.018;2024-01-25T13:49:39;8.60;50.80
23669;DHT22;12011;47.422;15.018;2024-01-25T13:52:17;8.60;50.50
23669;DHT22;12011;47.422;15.018;2024-01-25T13:54:48;8.70;50.40
23669;DHT22;12011;47.422;15.018;2024-01-25T13:57:17;8.70;52.40
23669;DHT22;12011;47.422;15.018;2024-01-25T13:59:49;8.60;52.00
23669;DHT22;12011;47.422;15.018;2024-01-25T14:02:19;8.70;50.20
23669;DHT22;12011;47.422;15.018;2024-01-25T14:04:51;8.40;52.90
23669;DHT22;12011;47.422;15.018;2024-01-25T14:07:20;8.50;51.50
23669;DHT22;12011;47.422;15.018;2024-01-25T14:09:50;8.50;51.20
23669;DHT22;12011;47.422;15.018;2024-01-25T14:12:20;8.50;54.10
23669;DHT22;12011;47.422;15.018;2024-01-25T14:14:50;8.40;51.70
23669;DHT22;12011;47.422;15.018;2024-01-25T14:17:19;8.30;53.10
23669;DHT22;12011;47.422;15.018;2024-01-25T14:19:53;8.30;53.40
23669;DHT22;12011;47.422;15.018;2024-01-25T14:22:23;8.60;50.40
23669;DHT22;12011;47.422;15.018;2024-01-25T14:24:52;8.60;51.40
23669;DHT22;12011;47.422;15.018;2024-01-25T14:27:22;8.60;52.60
23669;DHT22;12011;47.422;15.018;2024-01-25T14:29:51;8.50;52.90
23669;DHT22;12011;47.422;15.018;2024-01-25T14:32:21;8.60;52.00
23669;DHT22;12011;47.422;15.018;2024-01-25T14:34:53;8.50;51.40
23669;DHT22;12011;47.422;15.018;2024-01-25T14:37:22;8.40;50.10
23669;DHT22;12011;47.422;15.018;2024-01-25T14:39:51;8.50;51.60
23669;DHT22;12011;47.422;15.018;2024-01-25T14:42:21;8.50;52.70
23669;DHT22;12011;47.422;15.018;2024-01-25T14:44:50;8.40;51.70
23669;DHT22;12011;47.422;15.018;2024-01-25T14:47:20;8.40;53.90
23669;DHT22;12011;47.422;15.018;2024-01-25T14:49:52;8.20;53.50
23669;DHT22;12011;47.422;15.018;2024-01-25T14:52:21;8.30;52.70
23669;DHT22;12011;47.422;15.018;2024-01-25T14:54:51;8.20;52.10
23669;DHT22;12011;47.422;15.018;2024-01-25T14:57:20;8.10;54.70
23669;DHT22;12011;47.422;15.018;2024-01-25T14:59:49;8.10;52.80
23669;DHT22;12011;47.422;15.018;2024-01-25T15:02:19;7.90;54.70
23669;DHT22;12011;47.422;15.018;2024-01-25T15:04:48;8.00;54.80
23669;DHT22;12011;47.422;15.018;2024-01-25T15:07:20;7.80;54.90
23669;DHT22;12011;47.422;15.018;2024-01-25T15:09:50;7.80;53.20
23669;DHT22;12011;47.422;15.018;2024-01-25T15:12:19;7.70;53.60
23669;DHT22;12011;47.422;15.018;2024-01-25T15:14:48;7.70;53.80
23669;DHT22;12011;47.422;15.018;2024-01-25T15:17:18;7.50;55.10
23669;DHT22;12011;47.422;15.018;2024-01-25T15:19:47;7.30;54.80
23669;DHT22;12011;47.422;15.018;2024-01-25T15:22:17;7.00;58.30
23669;DHT22;12011;47.422;15.018;2024-01-25T15:24:52;6.70;56.90
23669;DHT22;12011;47.422;15.018;2024-01-25T15:27:21;6.60;57.10
23669;DHT22;12011;47.422;15.018;2024-01-25T15:29:51;6.50;61.50
23669;DHT22;12011;47.422;15.018;2024-01-25T15:32:21;6.50;58.70
23669;DHT22;12011;47.422;15.018;2024-01-25T15:34:50;6.10;63.70
23669;DHT22;12011;47.422;15.018;2024-01-25T15:37:22;6.10;63.60
23669;DHT22;12011;47.422;15.018;2024-01-25T15:39:52;6.00;74.60
23669;DHT22;12011;47.422;15.018;2024-01-25T15:42:21;5.40;81.20
23669;DHT22;12011;47.422;15.018;2024-01-25T15:44:56;5.30;80.80
23669;DHT22;12011;47.422;15.018;2024-01-25T15:47:26;5.40;70.40
23669;DHT22;12011;47.422;15.018;2024-01-25T15:49:55;5.30;77.90
23669;DHT22;12011;47.422;15.018;2024-01-25T15:52:28;5.00;87.00
23669;DHT22;12011;47.422;15.018;2024-01-25T15:54:58;4.90;86.90
23669;DHT22;12011;47.422;15.018;2024-01-25T15:57:28;5.00;87.30